Minnehaha Springs, West Virginia
Current Conditions -  °F | °C
As of 11:35 PM on Saturday 25 Oct 2014 (Local Time) from KHSP Reporting Station
Broken Clouds Broken Clouds  
Wind Chill: 11°   Ceiling: 1200
Heat Index: 11°   Visibility: 10mi
Dew Point:   Wind: 20mph
Humidity: 86%   Direction: 280°W
Pressure: 29.84"   Gusts: 29mph
Location:  38.2213°N, 80.0565°W
Report Text: KHSP 260335Z AUTO 28017G25KT 10SM BKN012 BKN018 11/08 A2984 RMK AO2 T01050082
Loading
Personal Weather Stations






























Interactive Weather Map
Tropical Storm Tracking
New forecast layout! Learn more

10-Day Weather Forecast

Advertisements
Track Severe Weather on mobile